createdAt,value
2022-10-20T00:02:52.904Z,1.56
2022-10-20T00:08:16.107Z,1.48
2022-10-20T00:13:51.674Z,1.59
2022-10-20T00:19:18.285Z,1.63
2022-10-20T00:24:49.255Z,1.74
2022-10-20T00:30:14.451Z,1.83
2022-10-20T00:35:44.610Z,1.93
2022-10-20T00:41:10.967Z,2.06
2022-10-20T00:46:46.646Z,2.33
2022-10-20T00:52:10.547Z,2.05
2022-10-20T00:57:49.648Z,2.28
2022-10-20T01:03:19.213Z,2.47
2022-10-20T01:08:44.350Z,2.67
2022-10-20T01:14:26.432Z,3.10
2022-10-20T01:20:10.335Z,3.17
2022-10-20T01:25:54.966Z,2.73
2022-10-20T01:31:30.724Z,2.42
2022-10-20T01:36:59.227Z,3.15
2022-10-20T01:42:30.367Z,2.76
2022-10-20T01:47:58.155Z,2.30
2022-10-20T01:53:21.507Z,2.35
2022-10-20T01:59:02.794Z,3.16
2022-10-20T02:04:50.933Z,2.48
2022-10-20T02:10:18.786Z,3.26
2022-10-20T02:15:47.186Z,3.03
2022-10-20T02:21:10.967Z,2.54
2022-10-20T02:26:37.973Z,2.49
2022-10-20T02:32:00.429Z,2.81
2022-10-20T02:37:22.747Z,3.35
2022-10-20T02:42:47.479Z,3.25
2022-10-20T02:48:12.591Z,3.45
2022-10-20T02:53:36.847Z,3.51
2022-10-20T02:58:59.331Z,3.51
2022-10-20T03:09:50.808Z,3.54
2022-10-20T03:15:13.285Z,3.50
2022-10-20T03:20:35.586Z,3.46
2022-10-20T03:26:05.525Z,3.41
2022-10-20T03:31:27.219Z,3.39
2022-10-20T03:36:49.235Z,3.38
2022-10-20T03:42:11.106Z,3.37
2022-10-20T03:47:33.605Z,3.41
2022-10-20T03:52:55.806Z,3.48
2022-10-20T03:58:17.835Z,3.51
2022-10-20T04:03:39.878Z,3.56
2022-10-20T04:09:02.012Z,3.55
2022-10-20T04:14:23.907Z,2.97
2022-10-20T04:19:46.730Z,3.39
2022-10-20T04:25:09.025Z,3.67
2022-10-20T04:30:30.794Z,3.65
2022-10-20T04:36:13.665Z,3.67
2022-10-20T04:41:36.226Z,3.71
2022-10-20T04:46:58.346Z,3.72
2022-10-20T04:52:21.413Z,3.69
2022-10-20T04:57:43.513Z,3.66
2022-10-20T05:03:05.677Z,3.74
2022-10-20T05:08:27.797Z,3.77
2022-10-20T05:13:49.987Z,3.84
2022-10-20T05:19:12.288Z,3.97
2022-10-20T05:24:33.866Z,4.01
2022-10-20T05:29:55.739Z,4.03
2022-10-20T05:35:17.806Z,3.98
2022-10-20T05:40:39.860Z,4.02
2022-10-20T05:46:02.028Z,4.09
2022-10-20T05:51:28.246Z,4.21
2022-10-20T05:56:50.446Z,4.16
2022-10-20T06:02:13.167Z,4.33
2022-10-20T06:07:35.374Z,4.46
2022-10-20T06:12:57.495Z,4.59
2022-10-20T06:18:19.587Z,4.59
2022-10-20T06:23:41.628Z,4.58
2022-10-20T06:29:06.161Z,4.78
2022-10-20T06:34:28.254Z,4.81
2022-10-20T06:39:50.207Z,4.99
2022-10-20T06:45:14.434Z,5.14
2022-10-20T06:50:39.325Z,5.15
2022-10-20T06:56:02.547Z,5.28
2022-10-20T07:01:33.157Z,5.34
2022-10-20T07:06:54.926Z,5.28
2022-10-20T07:12:17.007Z,4.89
2022-10-20T07:17:39.076Z,5.12
2022-10-20T07:23:01.145Z,5.18
2022-10-20T07:28:23.209Z,5.26
2022-10-20T07:33:56.517Z,5.23
2022-10-20T07:39:27.504Z,5.20
2022-10-20T07:44:49.468Z,5.31
2022-10-20T07:50:13.427Z,5.50
2022-10-20T07:55:39.394Z,5.48
2022-10-20T08:01:01.926Z,5.46
2022-10-20T08:06:24.326Z,5.57
2022-10-20T08:11:47.037Z,5.55
2022-10-20T08:17:11.187Z,5.48
2022-10-20T08:22:33.270Z,5.47
2022-10-20T08:27:55.320Z,5.50
2022-10-20T08:33:17.279Z,5.52
2022-10-20T08:38:40.488Z,5.50
2022-10-20T08:44:05.507Z,5.50
2022-10-20T08:49:31.919Z,5.36
2022-10-20T08:54:56.365Z,5.40
2022-10-20T09:00:21.525Z,5.22
2022-10-20T09:05:50.275Z,5.33
2022-10-20T09:11:32.687Z,5.33
2022-10-20T09:17:09.123Z,4.78
2022-10-20T09:22:44.655Z,4.84
2022-10-20T09:28:21.988Z,5.10
2022-10-20T09:33:44.444Z,5.04
2022-10-20T09:39:06.966Z,4.64
2022-10-20T09:44:33.417Z,4.67
2022-10-20T09:50:02.695Z,4.66
2022-10-20T09:55:33.914Z,5.23
2022-10-20T10:01:08.139Z,4.60
2022-10-20T10:06:38.266Z,4.77
2022-10-20T10:12:15.506Z,5.22
2022-10-20T10:17:37.395Z,5.15
2022-10-20T10:23:31.026Z,4.96
2022-10-20T10:28:59.294Z,4.87
2022-10-20T10:34:21.446Z,4.83
2022-10-20T10:39:44.154Z,4.87
2022-10-20T10:45:38.647Z,4.90
2022-10-20T10:51:11.372Z,4.96
2022-10-20T10:56:50.386Z,4.87
2022-10-20T11:02:37.437Z,4.76
2022-10-20T11:08:14.695Z,4.32
2022-10-20T11:14:01.235Z,4.41
2022-10-20T11:19:47.252Z,4.39
2022-10-20T11:25:16.894Z,4.43
2022-10-20T11:30:39.654Z,4.43
2022-10-20T11:36:11.617Z,4.35
2022-10-20T11:41:47.848Z,4.45
2022-10-20T11:47:26.505Z,4.42
2022-10-20T11:53:12.767Z,4.46
2022-10-20T11:59:05.033Z,4.41
2022-10-20T12:04:29.873Z,4.39
2022-10-20T12:10:18.460Z,4.26
2022-10-20T12:15:52.275Z,4.21
2022-10-20T12:21:34.561Z,4.19
2022-10-20T12:27:07.881Z,4.12
2022-10-20T12:32:29.399Z,4.14
2022-10-20T12:38:04.655Z,4.14
2022-10-20T12:43:30.857Z,4.12
2022-10-20T12:48:59.156Z,4.11
2022-10-20T12:54:30.627Z,3.94
2022-10-20T12:59:54.029Z,3.95
2022-10-20T13:05:15.596Z,3.91
2022-10-20T13:10:38.423Z,3.85
2022-10-20T13:16:02.154Z,3.82
2022-10-20T13:21:33.396Z,3.81
2022-10-20T13:27:00.245Z,3.79
2022-10-20T13:32:43.532Z,3.78
2022-10-20T13:38:24.506Z,3.81
2022-10-20T13:44:25.885Z,3.75
2022-10-20T13:50:10.399Z,3.71
2022-10-20T13:55:58.134Z,3.66
2022-10-20T14:01:26.910Z,3.55
2022-10-20T14:06:48.970Z,3.59
2022-10-20T14:12:26.868Z,3.58
2022-10-20T14:18:40.242Z,3.51
2022-10-20T14:24:04.274Z,3.49
2022-10-20T14:29:30.231Z,3.46
2022-10-20T14:34:58.859Z,3.47
2022-10-20T14:40:30.734Z,3.44
2022-10-20T14:45:55.552Z,3.36
2022-10-20T14:51:45.546Z,3.39
2022-10-20T14:57:10.781Z,3.42
2022-10-20T15:02:38.927Z,3.34
2022-10-20T15:08:26.944Z,3.19
2022-10-20T15:13:54.588Z,2.73
2022-10-20T15:19:32.406Z,3.15
2022-10-20T15:24:56.948Z,2.69
2022-10-20T15:30:21.385Z,3.10
2022-10-20T15:35:48.036Z,2.70
2022-10-20T15:41:27.854Z,3.16
2022-10-20T15:46:56.927Z,2.86
2022-10-20T15:52:19.196Z,2.72
2022-10-20T15:57:41.515Z,3.13
2022-10-20T16:03:04.613Z,2.75
2022-10-20T16:08:26.751Z,2.96
2022-10-20T16:13:49.028Z,3.22
2022-10-20T16:19:11.821Z,3.12
2022-10-20T16:24:33.604Z,3.15
2022-10-20T16:29:55.326Z,3.19
2022-10-20T16:35:17.125Z,3.17
2022-10-20T16:40:39.053Z,3.10
2022-10-20T16:46:06.093Z,3.13
2022-10-20T16:51:28.067Z,3.14
2022-10-20T16:56:50.104Z,3.12
2022-10-20T17:02:14.908Z,3.18
2022-10-20T17:07:37.230Z,3.17
2022-10-20T17:12:59.145Z,3.05
2022-10-20T17:18:22.169Z,3.07
2022-10-20T17:23:45.350Z,3.18
2022-10-20T17:29:10.013Z,2.96
2022-10-20T17:34:32.186Z,3.14
2022-10-20T17:39:54.154Z,3.03
2022-10-20T17:45:16.227Z,2.85
2022-10-20T17:50:38.519Z,3.17
2022-10-20T17:56:11.121Z,3.23
2022-10-20T18:01:36.656Z,3.25
2022-10-20T18:06:59.049Z,3.23
2022-10-20T18:12:20.865Z,3.30
2022-10-20T18:17:42.647Z,3.32
2022-10-20T18:23:04.725Z,3.26
2022-10-20T18:28:26.822Z,3.35
2022-10-20T18:33:50.648Z,3.36
2022-10-20T18:39:12.667Z,3.35
2022-10-20T18:44:34.527Z,3.31
2022-10-20T18:49:56.554Z,3.21
2022-10-20T18:55:19.271Z,3.28
2022-10-20T19:00:41.476Z,3.31
2022-10-20T19:06:16.782Z,3.26
2022-10-20T19:11:51.527Z,3.23
2022-10-20T19:17:13.846Z,3.11
2022-10-20T19:22:36.396Z,2.89
2022-10-20T19:27:59.847Z,3.19
2022-10-20T19:33:22.202Z,3.02
2022-10-20T19:38:44.878Z,2.92
2022-10-20T19:44:08.407Z,2.64
2022-10-20T19:49:30.471Z,2.61
2022-10-20T19:54:53.482Z,3.04
2022-10-20T20:00:16.207Z,2.81
2022-10-20T20:05:38.680Z,2.60
2022-10-20T20:11:05.888Z,3.12
2022-10-20T20:16:29.507Z,3.12
2022-10-20T20:21:51.398Z,3.14
2022-10-20T20:27:13.088Z,3.16
2022-10-20T20:32:37.041Z,3.18
2022-10-20T20:37:59.719Z,3.16
2022-10-20T20:43:21.988Z,3.15
2022-10-20T20:48:44.490Z,3.09
2022-10-20T20:54:06.708Z,3.08
2022-10-20T20:59:29.034Z,3.04
2022-10-20T21:04:50.970Z,2.98
2022-10-20T21:10:13.050Z,2.87
2022-10-20T21:15:35.534Z,2.89
2022-10-20T21:20:57.831Z,2.75
2022-10-20T21:26:21.482Z,2.95
2022-10-20T21:31:43.607Z,3.01
2022-10-20T21:37:05.548Z,2.78
2022-10-20T21:42:28.079Z,2.84
2022-10-20T21:47:50.096Z,2.92
2022-10-20T21:53:12.408Z,2.93
2022-10-20T21:58:35.430Z,3.08
2022-10-20T22:03:57.826Z,2.95
2022-10-20T22:09:21.543Z,3.09
2022-10-20T22:14:46.427Z,2.79
2022-10-20T22:20:10.068Z,2.74
2022-10-20T22:25:38.371Z,2.73
2022-10-20T22:36:23.854Z,3.01
2022-10-20T22:41:45.970Z,2.56
2022-10-20T22:47:08.375Z,2.49
2022-10-20T22:52:30.790Z,2.86
2022-10-20T22:57:53.498Z,2.82
2022-10-20T23:03:15.631Z,2.59
2022-10-20T23:08:43.663Z,2.83
2022-10-20T23:15:22.511Z,3.01
2022-10-20T23:20:05.615Z,2.66
2022-10-20T23:25:28.019Z,2.91
2022-10-20T23:30:50.198Z,2.96
2022-10-20T23:36:14.028Z,2.85
2022-10-20T23:41:36.007Z,2.80
2022-10-20T23:46:57.947Z,2.93
2022-10-20T23:52:20.055Z,2.91
2022-10-20T23:57:41.821Z,2.58
